X  Sluiten METAR luchtvaart weer gegevens      EHRD Rotterdam The Hague Airport
Temperatuur
61°F Temperatuur
57°F Dauwpunt
88% Vochtigheid



Wind
1 MPH
2 KM/U
0 M/S
1 KTS



200°
ZZW
Huidig weer

Wat bewolking Wat bewolking
Luchtdruk 1014.9 (hPa) - 29.97 (inHg)
Zicht 6 (mijl) - 9.7 (km)
Vliegveld
Vliegveld code EHRD

Locatie : Rotterdam The Hague Airport
Afstand: 23 (mi)

Metar:
EHRD 220455Z AUTO 20001KT 9999 FEW020 OVC047 16/14 Q1015 NOSIG

Tijd: 22-07-2024 06:55 CEST